Crew | Aerofun Virtual



 METAR AND TAF INFORMATION
METAR FOR GMMI
ADDS - METARS form results

(2134 UTC 16 February 2020)
Data provider http://aviationweather.gov/metar/data/
 
Forecast for: GMMI (ESSAOUIRA , MA)
Text: TAF GMMI 161700Z 1618/1724 34008KT CAVOK
Forecast period: 1800 UTC 16 February 2020 to 0000 UTC 18 February 2020
Forecast type: FROM: standard forecast or significant change
Winds: from the NNW (340 degrees) at 9 MPH (8 knots; 4.1 m/s)
Visibility: 6 or more miles 10+ km)
Ceiling: unknown
Clouds: missing
Weather: NSW  (no significant weather)

 AIRPORT MAP

 RUNWAY INFORMATION
Runway 16 Runway length 6890 ft Runway width 148 ft
Runway elevation 351 ft Runway displaced threshold 0 ft Runway heading 159
Runway 34 Runway length 6890 ft Runway width 148 ft
Runway elevation 421 ft Runway displaced threshold 0 ft Runway heading 339

 AIRPORT FREQUENCIES
Type TWR Name TWR Frequency 121.2 MHZ

 AIRPORT NEAR NAVIGATION AIDS
Type VOR-DME Name Essaouira Frequency 112700 KHZ